Shidler, Oklahoma
Current Conditions -  °F | °C
As of 6:53 PM on Thursday 18 Dec 2014 (Local Time) from KPNC Reporting Station
Overcast Overcast  
Wind Chill: 32°   Ceiling: 1300
Heat Index: 37°   Visibility: 10mi
Dew Point: 34°   Wind: 6mph
Humidity: 89%   Direction: 10°N
Pressure: 30.21"   Gusts: NA
Location:  36.78°N, 96.66°W
Report Text: KPNC 190053Z AUTO 01005KT 10SM OVC013 03/01 A3021 RMK AO2 SLP234 T00280011
Loading
Personal Weather Stations






























Interactive Weather Map New forecast layout! Learn more

10-Day Weather Forecast

Advertisements
Track Severe Weather on mobile